createdAt,value
2023-03-11T00:01:57.025Z,1.20
2023-03-11T00:04:28.445Z,1.20
2023-03-11T00:07:00.117Z,1.57
2023-03-11T00:09:34.587Z,4.10
2023-03-11T00:12:07.646Z,1.30
2023-03-11T00:14:38.772Z,0.78
2023-03-11T00:17:10.377Z,0.85
2023-03-11T00:19:41.875Z,1.10
2023-03-11T00:22:13.210Z,1.00
2023-03-11T00:24:44.776Z,0.82
2023-03-11T00:27:16.184Z,0.78
2023-03-11T00:29:47.667Z,0.88
2023-03-11T00:32:19.475Z,0.50
2023-03-11T00:34:51.840Z,2.65
2023-03-11T00:37:23.219Z,1.00
2023-03-11T00:39:54.770Z,0.95
2023-03-11T00:42:26.242Z,0.95
2023-03-11T00:44:57.783Z,1.70
2023-03-11T00:47:29.131Z,1.60
2023-03-11T00:50:00.553Z,1.52
2023-03-11T00:52:31.899Z,1.05
2023-03-11T00:55:03.438Z,2.83
2023-03-11T00:57:34.797Z,2.15
2023-03-11T01:00:09.276Z,1.72
2023-03-11T01:02:40.676Z,1.92
2023-03-11T01:05:12.403Z,2.58
2023-03-11T01:07:44.341Z,4.87
2023-03-11T01:10:16.285Z,4.55
2023-03-11T01:12:47.655Z,3.02
2023-03-11T01:15:22.101Z,4.15
2023-03-11T01:17:53.675Z,4.47
2023-03-11T01:20:26.814Z,2.00
2023-03-11T01:22:58.270Z,2.72
2023-03-11T01:25:30.327Z,2.87
2023-03-11T01:28:01.978Z,2.35
2023-03-11T01:30:33.610Z,3.37
2023-03-11T01:33:07.021Z,2.62
2023-03-11T01:35:39.997Z,2.77
2023-03-11T01:38:12.343Z,1.98
2023-03-11T01:40:45.731Z,2.80
2023-03-11T01:43:59.727Z,3.33
2023-03-11T01:46:34.271Z,2.95
2023-03-11T01:49:07.308Z,2.95
2023-03-11T01:51:41.811Z,3.55
2023-03-11T01:54:16.482Z,3.17
2023-03-11T01:56:50.242Z,3.17
2023-03-11T01:59:24.797Z,4.65
2023-03-11T02:02:00.195Z,5.75
2023-03-11T02:04:33.375Z,3.08
2023-03-11T02:07:05.755Z,2.67
2023-03-11T02:09:37.185Z,3.25
2023-03-11T02:12:11.885Z,2.42
2023-03-11T02:14:46.001Z,4.33
2023-03-11T02:17:18.509Z,2.92
2023-03-11T02:19:59.476Z,5.00
2023-03-11T02:22:32.966Z,4.83
2023-03-11T02:25:09.377Z,4.92
2023-03-11T02:27:45.170Z,3.77
2023-03-11T02:30:18.758Z,2.65
2023-03-11T02:32:51.742Z,3.87
2023-03-11T02:35:23.410Z,4.37
2023-03-11T02:37:56.212Z,4.62
2023-03-11T02:40:50.076Z,2.98
2023-03-11T02:43:25.905Z,3.95
2023-03-11T02:45:58.658Z,4.67
2023-03-11T02:48:31.322Z,3.33
2023-03-11T02:51:03.465Z,3.70
2023-03-11T02:53:37.972Z,3.10
2023-03-11T02:56:09.691Z,4.35
2023-03-11T02:58:41.021Z,3.92
2023-03-11T03:01:13.107Z,5.67
2023-03-11T03:03:44.719Z,3.90
2023-03-11T03:06:16.104Z,6.70
2023-03-11T03:08:47.588Z,6.25
2023-03-11T03:11:19.147Z,5.45
2023-03-11T03:13:50.521Z,3.92
2023-03-11T03:16:22.060Z,3.95
2023-03-11T03:18:53.497Z,4.53
2023-03-11T03:21:25.005Z,5.37
2023-03-11T03:23:56.438Z,6.67
2023-03-11T03:26:28.110Z,5.55
2023-03-11T03:28:59.486Z,4.95
2023-03-11T03:31:31.240Z,4.15
2023-03-11T03:34:02.724Z,6.08
2023-03-11T03:36:34.172Z,3.70
2023-03-11T03:39:06.758Z,5.12
2023-03-11T03:41:38.208Z,4.08
2023-03-11T03:44:09.951Z,4.42
2023-03-11T03:46:41.262Z,6.00
2023-03-11T03:49:12.708Z,3.42
2023-03-11T03:51:44.110Z,3.40
2023-03-11T03:54:15.917Z,3.45
2023-03-11T03:56:47.269Z,3.30
2023-03-11T03:59:18.772Z,4.47
2023-03-11T04:01:50.207Z,5.20
2023-03-11T04:04:21.960Z,11.93
2023-03-11T04:06:53.410Z,5.33
2023-03-11T04:09:25.421Z,6.33
2023-03-11T04:11:56.751Z,7.15
2023-03-11T04:14:28.311Z,11.00
2023-03-11T04:16:59.732Z,15.03
2023-03-11T04:19:31.377Z,13.68
2023-03-11T04:22:02.719Z,7.53
2023-03-11T04:24:34.340Z,5.80
2023-03-11T04:27:05.828Z,5.97
2023-03-11T04:29:37.280Z,6.42
2023-03-11T04:32:09.370Z,5.83
2023-03-11T04:34:42.080Z,3.70
2023-03-11T04:37:13.427Z,4.62
2023-03-11T04:39:44.842Z,4.60
2023-03-11T04:42:16.154Z,5.08
2023-03-11T04:44:47.576Z,4.85
2023-03-11T04:47:19.010Z,6.95
2023-03-11T04:49:50.418Z,4.70
2023-03-11T04:52:21.777Z,6.95
2023-03-11T04:54:53.203Z,5.10
2023-03-11T04:57:24.577Z,5.62
2023-03-11T04:59:56.110Z,7.67
2023-03-11T05:02:28.363Z,6.05
2023-03-11T05:04:59.813Z,5.75
2023-03-11T05:07:31.138Z,8.68
2023-03-11T05:10:02.746Z,7.22
2023-03-11T05:12:34.219Z,8.60
2023-03-11T05:15:06.369Z,7.67
2023-03-11T05:17:37.725Z,7.33
2023-03-11T05:20:11.459Z,6.90
2023-03-11T05:22:42.877Z,6.87
2023-03-11T05:25:14.578Z,4.85
2023-03-11T05:27:46.009Z,4.53
2023-03-11T05:30:18.224Z,5.95
2023-03-11T05:32:50.116Z,6.45
2023-03-11T05:35:21.625Z,4.90
2023-03-11T05:37:53.576Z,4.67
2023-03-11T05:40:25.032Z,4.30
2023-03-11T05:42:56.644Z,6.45
2023-03-11T05:45:28.066Z,5.83
2023-03-11T05:47:59.574Z,5.30
2023-03-11T05:50:30.985Z,4.92
2023-03-11T05:53:02.353Z,7.35
2023-03-11T05:55:33.769Z,7.35
2023-03-11T05:58:06.208Z,5.90
2023-03-11T06:00:37.756Z,6.92
2023-03-11T06:03:09.171Z,7.37
2023-03-11T06:05:45.886Z,10.28
2023-03-11T06:08:18.500Z,9.05
2023-03-11T06:10:50.150Z,9.00
2023-03-11T06:13:21.614Z,9.00
2023-03-11T06:15:53.034Z,9.43
2023-03-11T06:18:26.268Z,11.05
2023-03-11T06:21:00.145Z,7.60
2023-03-11T06:23:32.289Z,7.72
2023-03-11T06:26:06.283Z,6.37
2023-03-11T06:28:38.014Z,6.37
2023-03-11T06:31:11.049Z,7.65
2023-03-11T06:33:42.529Z,7.50
2023-03-11T06:36:16.347Z,7.37
2023-03-11T06:38:49.749Z,6.00
2023-03-11T06:41:21.514Z,6.37
2023-03-11T06:43:52.931Z,5.22
2023-03-11T06:46:25.778Z,8.50
2023-03-11T06:48:57.223Z,9.65
2023-03-11T06:51:28.566Z,13.30
2023-03-11T06:54:00.008Z,8.85
2023-03-11T06:56:31.365Z,9.63
2023-03-11T06:59:02.789Z,6.95
2023-03-11T07:01:34.584Z,9.00
2023-03-11T07:04:09.572Z,7.80
2023-03-11T07:06:43.940Z,10.90
2023-03-11T07:09:15.687Z,14.13
2023-03-11T07:12:06.889Z,15.35
2023-03-11T07:14:38.590Z,15.85
2023-03-11T07:17:10.080Z,9.83
2023-03-11T07:19:41.863Z,15.65
2023-03-11T07:22:13.454Z,9.75
2023-03-11T07:24:47.429Z,9.45
2023-03-11T07:27:38.466Z,23.00
2023-03-11T07:32:45.646Z,10.58
2023-03-11T07:35:17.793Z,13.85
2023-03-11T07:38:05.171Z,12.65
2023-03-11T07:40:36.928Z,11.00
2023-03-11T07:43:08.774Z,11.43
2023-03-11T07:45:40.538Z,10.43
2023-03-11T07:48:12.017Z,10.80
2023-03-11T07:50:43.650Z,9.15
2023-03-11T07:53:15.041Z,9.63
2023-03-11T07:55:46.796Z,11.50
2023-03-11T07:58:18.153Z,10.32
2023-03-11T08:00:49.775Z,8.78
2023-03-11T08:03:21.185Z,10.98
2023-03-11T08:05:53.977Z,13.48
2023-03-11T08:08:25.427Z,5.40
2023-03-11T08:10:56.832Z,5.05
2023-03-11T08:13:28.323Z,7.62
2023-03-11T08:15:59.982Z,8.40
2023-03-11T08:18:34.092Z,8.65
2023-03-11T08:21:08.438Z,7.05
2023-03-11T08:23:40.057Z,9.05
2023-03-11T08:26:14.026Z,12.55
2023-03-11T08:28:46.092Z,13.68
2023-03-11T08:31:18.992Z,13.65
2023-03-11T08:33:53.261Z,15.55
2023-03-11T08:36:25.071Z,12.25
2023-03-11T08:38:56.632Z,9.13
2023-03-11T08:41:29.055Z,10.00
2023-03-11T08:44:00.414Z,9.30
2023-03-11T08:46:34.439Z,10.80
2023-03-11T08:49:06.612Z,11.48
2023-03-11T08:51:38.734Z,11.53
2023-03-11T08:54:10.135Z,12.20
2023-03-11T08:56:41.547Z,12.50
2023-03-11T08:59:12.938Z,11.28
2023-03-11T09:01:44.360Z,14.25
2023-03-11T09:04:15.682Z,12.33
2023-03-11T09:06:49.057Z,10.75
2023-03-11T09:09:20.426Z,12.00
2023-03-11T09:11:51.947Z,8.48
2023-03-11T09:14:23.357Z,11.35
2023-03-11T09:16:54.799Z,11.05
2023-03-11T09:19:27.692Z,10.23
2023-03-11T09:22:01.481Z,9.35
2023-03-11T09:24:35.242Z,10.75
2023-03-11T09:27:06.929Z,13.55
2023-03-11T09:29:38.269Z,14.87
2023-03-11T09:32:10.913Z,27.07
2023-03-11T09:34:42.525Z,41.60
2023-03-11T09:37:15.189Z,10.68
2023-03-11T09:39:46.589Z,8.95
2023-03-11T09:42:21.925Z,30.12
2023-03-11T09:44:57.789Z,8.20
2023-03-11T09:47:56.501Z,22.52
2023-03-11T09:50:34.405Z,17.02
2023-03-11T09:53:14.001Z,9.83
2023-03-11T09:55:48.542Z,11.53
2023-03-11T09:58:24.894Z,9.03
2023-03-11T10:00:57.020Z,9.30
2023-03-11T10:03:33.105Z,7.87
2023-03-11T10:06:15.065Z,11.78
2023-03-11T10:08:50.454Z,8.10
2023-03-11T10:11:27.953Z,9.35
2023-03-11T10:14:05.161Z,10.53
2023-03-11T10:16:40.646Z,23.27
2023-03-11T10:19:18.270Z,9.68
2023-03-11T10:21:53.760Z,6.55
2023-03-11T10:24:36.957Z,6.85
2023-03-11T10:27:12.682Z,8.15
2023-03-11T10:29:49.483Z,5.25
2023-03-11T10:32:23.987Z,6.83
2023-03-11T10:34:59.154Z,6.85
2023-03-11T10:37:48.373Z,6.95
2023-03-11T10:40:17.067Z,5.92
2023-03-11T10:42:49.499Z,6.35
2023-03-11T10:45:24.003Z,9.20
2023-03-11T10:47:57.012Z,7.08
2023-03-11T10:50:29.009Z,7.10
2023-03-11T10:53:09.325Z,5.90
2023-03-11T10:58:25.652Z,9.18
2023-03-11T11:01:06.452Z,10.55
2023-03-11T11:03:39.879Z,6.62
2023-03-11T11:06:21.811Z,6.03
2023-03-11T11:09:08.376Z,8.65
2023-03-11T11:11:40.030Z,9.83
2023-03-11T11:14:11.814Z,6.15
2023-03-11T11:16:48.226Z,5.03
2023-03-11T11:19:20.643Z,4.05
2023-03-11T11:21:52.806Z,5.10
2023-03-11T11:24:27.352Z,6.15
2023-03-11T11:27:14.714Z,5.50
2023-03-11T11:29:47.321Z,6.10
2023-03-11T11:32:26.328Z,5.35
2023-03-11T11:35:01.306Z,9.90
2023-03-11T11:37:35.657Z,11.55
2023-03-11T11:43:20.153Z,5.22
2023-03-11T11:45:56.561Z,4.95
2023-03-11T11:48:31.745Z,4.45
2023-03-11T11:51:08.174Z,4.17
2023-03-11T11:53:42.694Z,3.90
2023-03-11T11:56:15.613Z,4.85
2023-03-11T11:58:48.619Z,4.28
2023-03-11T12:01:24.721Z,3.22
2023-03-11T12:04:16.220Z,4.47
2023-03-11T12:06:51.103Z,3.87
2023-03-11T12:09:27.324Z,4.53
2023-03-11T12:12:04.364Z,4.15
2023-03-11T12:14:40.274Z,3.55
2023-03-11T12:17:14.622Z,3.42
2023-03-11T12:19:48.998Z,3.85
2023-03-11T12:22:43.548Z,3.12
2023-03-11T12:25:32.820Z,5.62
2023-03-11T12:28:09.428Z,4.97
2023-03-11T12:30:44.499Z,5.95
2023-03-11T12:33:19.590Z,5.97
2023-03-11T12:35:53.715Z,3.05
2023-03-11T12:38:31.180Z,3.02
2023-03-11T12:41:05.686Z,4.15
2023-03-11T12:44:11.707Z,3.15
2023-03-11T12:47:21.263Z,4.22
2023-03-11T12:49:54.843Z,4.00
2023-03-11T12:52:30.942Z,4.15
2023-03-11T12:55:38.595Z,4.70
2023-03-11T12:58:23.936Z,34.90
2023-03-11T13:01:15.574Z,7.00
2023-03-11T13:04:01.065Z,4.75
2023-03-11T13:06:46.464Z,4.45
2023-03-11T13:09:18.761Z,2.47
2023-03-11T13:11:51.449Z,5.92
2023-03-11T13:14:30.175Z,4.12
2023-03-11T13:17:27.284Z,4.20
2023-03-11T13:19:59.714Z,3.80
2023-03-11T13:23:13.149Z,3.70
2023-03-11T13:25:59.723Z,2.80
2023-03-11T13:28:42.508Z,3.77
2023-03-11T13:31:23.245Z,2.90
2023-03-11T13:33:56.368Z,5.05
2023-03-11T13:36:45.079Z,6.65
2023-03-11T13:39:32.905Z,3.98
2023-03-11T13:42:05.690Z,3.70
2023-03-11T13:44:40.396Z,3.70
2023-03-11T13:47:15.632Z,9.63
2023-03-11T13:49:51.900Z,6.12
2023-03-11T13:52:28.403Z,4.83
2023-03-11T13:55:03.715Z,5.45
2023-03-11T13:57:36.751Z,4.72
2023-03-11T14:00:17.543Z,4.53
2023-03-11T14:02:53.826Z,5.05
2023-03-11T14:05:27.781Z,7.95
2023-03-11T14:08:12.931Z,6.25
2023-03-11T14:10:53.456Z,6.50
2023-03-11T14:13:26.142Z,8.53
2023-03-11T14:16:06.479Z,6.00
2023-03-11T14:18:40.538Z,6.97
2023-03-11T14:21:18.387Z,8.40
2023-03-11T14:23:51.696Z,6.83
2023-03-11T14:26:25.744Z,5.97
2023-03-11T14:28:59.759Z,7.92
2023-03-11T14:31:37.002Z,7.42
2023-03-11T14:34:15.887Z,8.33
2023-03-11T14:37:01.886Z,5.55
2023-03-11T14:39:34.527Z,6.05
2023-03-11T14:42:12.290Z,6.67
2023-03-11T14:44:45.497Z,6.40
2023-03-11T14:47:20.614Z,5.35
2023-03-11T14:49:53.998Z,6.45
2023-03-11T14:52:28.460Z,5.35
2023-03-11T14:55:00.633Z,7.03
2023-03-11T14:57:35.741Z,7.65
2023-03-11T15:00:13.935Z,6.40
2023-03-11T15:02:52.179Z,8.00
2023-03-11T15:05:26.784Z,7.60
2023-03-11T15:08:03.263Z,7.80
2023-03-11T15:10:34.766Z,10.10
2023-03-11T15:13:16.932Z,11.88
2023-03-11T15:15:57.837Z,10.05
2023-03-11T15:18:33.454Z,7.17
2023-03-11T15:21:08.803Z,14.13
2023-03-11T15:23:40.471Z,15.05
2023-03-11T15:26:23.536Z,9.68
2023-03-11T15:29:02.441Z,7.75
2023-03-11T15:31:36.297Z,10.25
2023-03-11T15:34:14.190Z,7.67
2023-03-11T15:37:20.954Z,9.23
2023-03-11T15:39:53.280Z,7.85
2023-03-11T15:42:26.538Z,13.55
2023-03-11T15:45:15.964Z,11.70
2023-03-11T15:47:58.699Z,10.55
2023-03-11T15:50:46.566Z,12.50
2023-03-11T15:53:04.871Z,11.00
2023-03-11T15:55:36.966Z,13.53
2023-03-11T15:58:10.008Z,11.93
2023-03-11T16:00:44.396Z,12.63
2023-03-11T16:03:15.782Z,13.93
2023-03-11T16:05:47.548Z,11.45
2023-03-11T16:08:20.492Z,18.35
2023-03-11T16:10:51.946Z,13.85
2023-03-11T16:13:23.462Z,16.00
2023-03-11T16:15:55.144Z,18.77
2023-03-11T16:18:26.576Z,17.35
2023-03-11T16:20:58.366Z,15.88
2023-03-11T16:23:48.498Z,16.02
2023-03-11T16:26:08.454Z,15.30
2023-03-11T16:28:40.226Z,15.15
2023-03-11T16:31:11.690Z,15.58
2023-03-11T16:33:43.138Z,14.53
2023-03-11T16:36:14.543Z,16.93
2023-03-11T16:38:48.188Z,15.05
2023-03-11T16:41:19.630Z,19.05
2023-03-11T16:43:51.319Z,15.08
2023-03-11T16:46:22.865Z,16.37
2023-03-11T16:48:54.390Z,17.60
2023-03-11T16:51:25.827Z,23.62
2023-03-11T16:53:57.265Z,16.97
2023-03-11T16:56:28.847Z,17.42
2023-03-11T16:59:01.167Z,16.37
2023-03-11T17:01:32.662Z,15.18
2023-03-11T17:04:04.071Z,16.62
2023-03-11T17:06:36.315Z,16.67
2023-03-11T17:09:10.321Z,21.42
2023-03-11T17:11:41.697Z,17.87
2023-03-11T17:14:17.098Z,19.05
2023-03-11T17:16:48.611Z,18.65
2023-03-11T17:19:20.050Z,20.48
2023-03-11T17:21:52.342Z,20.20
2023-03-11T17:24:23.802Z,19.82
2023-03-11T17:29:24.816Z,19.07
2023-03-11T17:31:56.229Z,18.40
2023-03-11T17:34:27.914Z,23.47
2023-03-11T17:36:59.359Z,22.70
2023-03-11T17:39:30.786Z,21.52
2023-03-11T17:42:02.334Z,23.55
2023-03-11T17:44:50.200Z,19.90
2023-03-11T17:47:07.228Z,25.37
2023-03-11T17:49:38.768Z,27.07
2023-03-11T17:52:10.329Z,24.45
2023-03-11T17:54:41.758Z,25.23
2023-03-11T17:57:13.395Z,22.48
2023-03-11T17:59:44.879Z,24.07
2023-03-11T18:02:16.386Z,22.40
2023-03-11T18:04:53.831Z,25.92
2023-03-11T18:07:25.991Z,25.08
2023-03-11T18:09:57.301Z,30.60
2023-03-11T18:12:28.837Z,25.08
2023-03-11T18:15:03.505Z,29.10
2023-03-11T18:17:36.375Z,21.73
2023-03-11T18:20:09.923Z,23.77
2023-03-11T18:22:44.481Z,17.07
2023-03-11T18:25:14.796Z,21.45
2023-03-11T18:27:46.319Z,24.57
2023-03-11T18:30:18.308Z,28.55
2023-03-11T18:32:50.063Z,34.73
2023-03-11T18:35:22.363Z,27.07
2023-03-11T18:37:54.096Z,25.15
2023-03-11T18:40:27.044Z,31.07
2023-03-11T18:42:58.454Z,33.83
2023-03-11T18:45:29.943Z,34.20
2023-03-11T18:48:01.312Z,36.00
2023-03-11T18:50:33.045Z,30.62
2023-03-11T18:53:04.906Z,28.00
2023-03-11T18:55:36.989Z,30.70
2023-03-11T18:58:09.568Z,30.60
2023-03-11T19:00:41.045Z,29.05
2023-03-11T19:03:13.369Z,27.37
2023-03-11T19:05:50.726Z,27.73
2023-03-11T19:08:21.957Z,28.95
2023-03-11T19:10:53.712Z,29.87
2023-03-11T19:13:37.126Z,28.38
2023-03-11T19:16:01.326Z,26.90
2023-03-11T19:18:32.659Z,22.45
2023-03-11T19:21:06.677Z,26.17
2023-03-11T19:23:38.055Z,27.02
2023-03-11T19:26:10.370Z,36.60
2023-03-11T19:28:41.959Z,34.23
2023-03-11T19:31:13.516Z,36.25
2023-03-11T19:33:47.124Z,45.75
2023-03-11T19:36:19.615Z,39.05
2023-03-11T19:38:51.122Z,44.05
2023-03-11T19:41:23.274Z,39.67
2023-03-11T19:43:54.840Z,34.65
2023-03-11T19:46:26.529Z,43.83
2023-03-11T19:48:58.928Z,43.00
2023-03-11T19:51:38.905Z,33.30
2023-03-11T19:54:03.602Z,41.20
2023-03-11T19:56:35.051Z,34.90
2023-03-11T19:59:07.179Z,34.53
2023-03-11T20:01:38.707Z,35.90
2023-03-11T20:04:12.545Z,31.42
2023-03-11T20:06:44.859Z,21.33
2023-03-11T20:09:17.537Z,14.10
2023-03-11T20:11:49.809Z,13.95
2023-03-11T20:14:21.312Z,15.08
2023-03-11T20:16:53.209Z,24.43
2023-03-11T20:19:29.816Z,24.60
2023-03-11T20:22:01.013Z,26.82
2023-03-11T20:24:32.668Z,24.02
2023-03-11T20:27:04.505Z,27.48
2023-03-11T20:29:35.984Z,24.20
2023-03-11T20:32:08.041Z,24.87
2023-03-11T20:34:39.728Z,25.05
2023-03-11T20:37:12.739Z,24.30
2023-03-11T20:39:57.321Z,24.25
2023-03-11T20:42:35.278Z,20.02
2023-03-11T20:45:18.057Z,24.47
2023-03-11T20:47:52.616Z,20.88
2023-03-11T20:50:25.805Z,17.45
2023-03-11T20:52:57.419Z,19.67
2023-03-11T20:55:29.132Z,15.95
2023-03-11T20:58:00.801Z,18.35
2023-03-11T21:00:32.450Z,15.78
2023-03-11T21:03:04.120Z,11.33
2023-03-11T21:05:41.395Z,11.53
2023-03-11T21:08:13.128Z,7.15
2023-03-11T21:10:45.023Z,10.18
2023-03-11T21:13:16.638Z,11.40
2023-03-11T21:15:48.390Z,10.53
2023-03-11T21:18:25.265Z,7.92
2023-03-11T21:23:52.634Z,5.33
2023-03-11T21:26:24.220Z,5.17
2023-03-11T21:28:56.892Z,6.15
2023-03-11T21:31:30.037Z,6.85
2023-03-11T21:34:08.054Z,6.20
2023-03-11T21:36:39.511Z,6.15
2023-03-11T21:39:10.934Z,6.28
2023-03-11T21:41:42.408Z,20.55
2023-03-11T21:44:20.347Z,8.83
2023-03-11T21:46:52.023Z,6.55
2023-03-11T21:49:24.852Z,4.78
2023-03-11T21:51:56.342Z,11.10
2023-03-11T21:54:27.863Z,15.28
2023-03-11T21:56:59.171Z,21.85
2023-03-11T21:59:31.686Z,19.75
2023-03-11T22:02:03.382Z,20.72
2023-03-11T22:04:35.036Z,23.73
2023-03-11T22:07:06.786Z,29.72
2023-03-11T22:09:38.607Z,31.42
2023-03-11T22:12:10.879Z,38.30
2023-03-11T22:14:42.481Z,31.60
2023-03-11T22:17:14.301Z,36.35
2023-03-11T22:19:46.252Z,39.23
2023-03-11T22:22:17.783Z,35.52
2023-03-11T22:24:49.513Z,39.70
2023-03-11T22:27:20.858Z,49.73
2023-03-11T22:29:52.381Z,43.25
2023-03-11T22:32:23.765Z,48.87
2023-03-11T22:34:55.161Z,39.60
2023-03-11T22:37:26.510Z,45.05
2023-03-11T22:39:57.906Z,41.35
2023-03-11T22:42:29.269Z,44.80
2023-03-11T22:45:00.713Z,42.33
2023-03-11T22:47:32.259Z,56.65
2023-03-11T22:50:03.678Z,52.33
2023-03-11T22:52:35.106Z,40.60
2023-03-11T22:55:07.529Z,43.90
2023-03-11T22:57:39.218Z,42.55
2023-03-11T23:00:17.115Z,33.55
2023-03-11T23:02:49.814Z,36.03
2023-03-11T23:05:21.304Z,27.82
2023-03-11T23:07:52.914Z,29.15
2023-03-11T23:10:24.458Z,31.10
2023-03-11T23:12:55.915Z,29.37
2023-03-11T23:15:27.366Z,30.48
2023-03-11T23:17:58.754Z,31.90
2023-03-11T23:20:30.178Z,29.55
2023-03-11T23:23:01.683Z,33.75
2023-03-11T23:25:33.949Z,30.92
2023-03-11T23:28:07.219Z,38.63
2023-03-11T23:30:40.359Z,40.52
2023-03-11T23:33:12.019Z,34.55
2023-03-11T23:35:44.107Z,31.50
2023-03-11T23:38:15.552Z,40.90
2023-03-11T23:40:47.152Z,31.40
2023-03-11T23:43:18.568Z,42.40
2023-03-11T23:45:50.324Z,36.50
2023-03-11T23:48:21.732Z,34.67
2023-03-11T23:50:53.291Z,42.65
2023-03-11T23:53:25.522Z,38.42
2023-03-11T23:55:56.992Z,35.00
2023-03-11T23:58:30.374Z,39.05
